createdAt,value
2018-07-26T00:00:30.471Z,9.17
2018-07-26T00:02:58.851Z,8.20
2018-07-26T00:05:27.226Z,8.00
2018-07-26T00:07:55.661Z,8.13
2018-07-26T00:10:24.242Z,7.27
2018-07-26T00:12:52.724Z,6.93
2018-07-26T00:15:21.154Z,7.63
2018-07-26T00:17:49.569Z,8.03
2018-07-26T00:20:17.968Z,8.50
2018-07-26T00:22:46.401Z,7.70
2018-07-26T00:25:14.633Z,7.63
2018-07-26T00:27:43.042Z,8.00
2018-07-26T00:30:11.355Z,7.27
2018-07-26T00:32:39.715Z,7.70
2018-07-26T00:35:08.123Z,7.70
2018-07-26T00:37:36.449Z,7.57
2018-07-26T00:40:05.315Z,7.67
2018-07-26T00:42:33.664Z,8.53
2018-07-26T00:45:01.991Z,7.90
2018-07-26T00:47:30.354Z,7.80
2018-07-26T00:49:58.692Z,7.70
2018-07-26T00:52:27.352Z,7.37
2018-07-26T00:54:55.741Z,8.00
2018-07-26T00:57:24.161Z,7.17
2018-07-26T00:59:52.556Z,8.60
2018-07-26T01:02:20.873Z,7.33
2018-07-26T01:04:49.198Z,6.83
2018-07-26T01:07:17.689Z,7.80
2018-07-26T01:09:46.117Z,8.10
2018-07-26T01:12:14.433Z,8.37
2018-07-26T01:14:42.717Z,8.10
2018-07-26T01:17:11.142Z,8.73
2018-07-26T01:19:39.598Z,7.90
2018-07-26T01:22:08.195Z,7.97
2018-07-26T01:24:36.521Z,7.40
2018-07-26T01:27:04.985Z,8.10
2018-07-26T01:29:33.361Z,8.03
2018-07-26T01:32:01.769Z,7.23
2018-07-26T01:34:30.136Z,8.30
2018-07-26T01:36:58.559Z,7.80
2018-07-26T01:39:26.802Z,8.13
2018-07-26T01:41:55.901Z,8.07
2018-07-26T01:44:25.119Z,8.07
2018-07-26T01:46:53.420Z,8.27
2018-07-26T01:49:21.825Z,8.27
2018-07-26T01:51:51.125Z,7.70
2018-07-26T01:54:19.460Z,7.40
2018-07-26T01:56:47.744Z,7.90
2018-07-26T01:59:16.107Z,8.17
2018-07-26T02:01:44.486Z,7.90
2018-07-26T02:04:12.805Z,7.53
2018-07-26T02:06:41.133Z,8.30
2018-07-26T02:09:10.650Z,7.30
2018-07-26T02:11:39.050Z,7.67
2018-07-26T02:14:13.144Z,7.70
2018-07-26T02:16:41.507Z,8.07
2018-07-26T02:19:09.753Z,7.47
2018-07-26T02:21:38.094Z,8.90
2018-07-26T02:24:06.457Z,7.67
2018-07-26T02:26:34.844Z,7.63
2018-07-26T02:29:03.200Z,7.43
2018-07-26T02:31:31.557Z,7.77
2018-07-26T02:33:59.742Z,6.83
2018-07-26T02:36:28.091Z,8.00
2018-07-26T02:38:59.234Z,7.77
2018-07-26T02:41:27.472Z,8.60
2018-07-26T02:43:55.832Z,7.70
2018-07-26T02:46:24.179Z,7.40
2018-07-26T02:48:52.589Z,7.33
2018-07-26T02:51:20.949Z,6.30
2018-07-26T02:53:49.231Z,7.83
2018-07-26T02:56:17.575Z,7.60
2018-07-26T02:58:45.786Z,8.23
2018-07-26T03:01:14.282Z,7.53
2018-07-26T03:03:42.630Z,9.00
2018-07-26T03:06:10.955Z,7.93
2018-07-26T03:08:39.265Z,9.20
2018-07-26T03:11:07.533Z,7.77
2018-07-26T03:13:35.906Z,7.63
2018-07-26T03:16:04.317Z,8.10
2018-07-26T03:18:32.629Z,8.00
2018-07-26T03:21:01.018Z,7.93
2018-07-26T03:23:29.294Z,7.27
2018-07-26T03:25:57.658Z,8.37
2018-07-26T03:28:26.017Z,8.27
2018-07-26T03:30:54.293Z,8.47
2018-07-26T03:33:22.678Z,8.07
2018-07-26T03:35:50.956Z,7.40
2018-07-26T03:38:19.307Z,8.27
2018-07-26T03:40:47.592Z,8.10
2018-07-26T03:43:15.900Z,9.10
2018-07-26T03:45:44.241Z,7.60
2018-07-26T03:48:12.580Z,8.57
2018-07-26T03:50:40.813Z,8.90
2018-07-26T03:53:09.106Z,8.20
2018-07-26T03:55:37.406Z,7.90
2018-07-26T03:58:05.952Z,8.13
2018-07-26T04:00:34.341Z,8.33
2018-07-26T04:03:02.744Z,9.07
2018-07-26T04:05:31.128Z,9.27
2018-07-26T04:07:59.434Z,8.23
2018-07-26T04:10:27.773Z,8.20
2018-07-26T04:12:56.157Z,8.40
2018-07-26T04:15:24.581Z,7.93
2018-07-26T04:17:58.620Z,7.70
2018-07-26T04:20:26.909Z,7.50
2018-07-26T04:22:55.262Z,9.10
2018-07-26T04:25:23.662Z,8.33
2018-07-26T04:27:52.269Z,9.23
2018-07-26T04:30:20.641Z,7.67
2018-07-26T04:32:48.954Z,8.57
2018-07-26T04:35:20.065Z,8.47
2018-07-26T04:37:48.367Z,8.40
2018-07-26T04:40:16.661Z,8.07
2018-07-26T04:42:45.077Z,8.60
2018-07-26T04:45:13.303Z,8.90
2018-07-26T04:47:41.652Z,8.33
2018-07-26T04:50:10.045Z,8.93
2018-07-26T04:52:38.469Z,8.30
2018-07-26T04:55:06.912Z,8.70
2018-07-26T04:57:35.301Z,8.40
2018-07-26T05:00:08.293Z,8.20
2018-07-26T05:02:36.757Z,8.60
2018-07-26T05:05:05.828Z,8.90
2018-07-26T05:07:34.266Z,9.50
2018-07-26T05:10:02.645Z,8.97
2018-07-26T05:12:30.998Z,8.53
2018-07-26T05:14:59.342Z,8.93
2018-07-26T05:17:27.758Z,9.20
2018-07-26T05:19:56.136Z,8.80
2018-07-26T05:22:24.372Z,8.77
2018-07-26T05:24:52.703Z,8.90
2018-07-26T05:27:21.067Z,9.00
2018-07-26T05:29:49.391Z,8.93
2018-07-26T05:32:17.778Z,9.20
2018-07-26T05:34:46.169Z,9.60
2018-07-26T05:37:14.545Z,8.73
2018-07-26T05:39:43.075Z,10.50
2018-07-26T05:42:11.416Z,10.07
2018-07-26T05:44:39.769Z,8.63
2018-07-26T05:47:08.162Z,9.13
2018-07-26T05:49:36.583Z,8.90
2018-07-26T05:52:04.885Z,9.03
2018-07-26T05:54:33.309Z,9.60
2018-07-26T05:57:01.682Z,9.47
2018-07-26T05:59:30.042Z,9.40
2018-07-26T06:01:58.588Z,10.40
2018-07-26T06:04:27.032Z,16.17
2018-07-26T06:06:55.393Z,10.23
2018-07-26T06:09:23.765Z,9.70
2018-07-26T06:11:52.116Z,10.13
2018-07-26T06:14:20.512Z,11.17
2018-07-26T06:16:49.284Z,11.50
2018-07-26T06:19:17.788Z,11.43
2018-07-26T06:21:46.910Z,10.20
2018-07-26T06:24:15.381Z,10.60
2018-07-26T06:26:43.725Z,9.83
2018-07-26T06:29:12.048Z,10.23
2018-07-26T06:31:40.874Z,9.63
2018-07-26T06:34:09.303Z,10.57
2018-07-26T06:36:37.635Z,10.50
2018-07-26T06:39:10.070Z,11.47
2018-07-26T06:41:38.516Z,9.67
2018-07-26T06:44:06.916Z,10.33
2018-07-26T06:46:35.466Z,10.70
2018-07-26T06:49:04.073Z,10.80
2018-07-26T06:51:33.056Z,11.00
2018-07-26T06:54:01.556Z,11.27
2018-07-26T06:56:29.781Z,13.00
2018-07-26T06:58:58.238Z,11.60
2018-07-26T07:01:26.654Z,11.43
2018-07-26T07:03:55.009Z,11.10
2018-07-26T07:06:23.449Z,10.13
2018-07-26T07:08:51.869Z,10.50
2018-07-26T07:11:20.273Z,10.20
2018-07-26T07:13:48.677Z,10.03
2018-07-26T07:16:17.197Z,9.60
2018-07-26T07:18:45.585Z,9.10
2018-07-26T07:21:15.991Z,10.07
2018-07-26T07:23:44.372Z,9.97
2018-07-26T07:26:12.711Z,9.20
2018-07-26T07:28:41.071Z,10.57
2018-07-26T07:31:09.478Z,8.70
2018-07-26T07:33:37.851Z,9.13
2018-07-26T07:36:07.993Z,9.03
2018-07-26T07:38:36.350Z,10.93
2018-07-26T07:41:04.797Z,8.23
2018-07-26T07:43:33.162Z,7.70
2018-07-26T07:46:01.534Z,8.90
2018-07-26T07:48:29.976Z,9.67
2018-07-26T07:50:58.374Z,10.17
2018-07-26T07:53:26.740Z,10.57
2018-07-26T07:55:55.149Z,9.57
2018-07-26T07:58:23.476Z,8.27
2018-07-26T08:00:52.936Z,7.90
2018-07-26T08:03:21.349Z,8.97
2018-07-26T08:05:49.630Z,8.50
2018-07-26T08:08:17.855Z,8.77
2018-07-26T08:10:46.225Z,8.83
2018-07-26T08:13:14.565Z,9.50
2018-07-26T08:15:43.012Z,9.40
2018-07-26T08:18:11.457Z,7.83
2018-07-26T08:20:39.818Z,8.40
2018-07-26T08:23:08.343Z,8.73
2018-07-26T08:25:36.834Z,8.30
2018-07-26T08:28:05.593Z,7.77
2018-07-26T08:30:34.037Z,8.30
2018-07-26T08:33:02.411Z,7.50
2018-07-26T08:35:30.754Z,7.40
2018-07-26T08:37:59.105Z,6.90
2018-07-26T08:40:27.764Z,7.17
2018-07-26T08:42:56.183Z,7.00
2018-07-26T08:45:24.558Z,6.70
2018-07-26T08:47:53.014Z,6.00
2018-07-26T08:50:21.346Z,6.60
2018-07-26T08:52:49.656Z,6.57
2018-07-26T08:55:18.029Z,6.10
2018-07-26T08:57:46.501Z,5.70
2018-07-26T09:00:18.543Z,6.17
2018-07-26T09:02:47.924Z,6.03
2018-07-26T09:05:16.641Z,6.23
2018-07-26T09:07:45.322Z,6.20
2018-07-26T09:10:14.220Z,6.40
2018-07-26T09:12:42.602Z,6.37
2018-07-26T09:15:10.996Z,6.60
2018-07-26T09:17:39.382Z,5.73
2018-07-26T09:20:08.477Z,5.50
2018-07-26T09:22:36.948Z,6.37
2018-07-26T09:25:05.419Z,5.10
2018-07-26T09:27:33.915Z,4.93
2018-07-26T09:30:02.304Z,5.03
2018-07-26T09:32:30.649Z,5.33
2018-07-26T09:34:59.071Z,4.97
2018-07-26T09:37:27.624Z,4.80
2018-07-26T09:39:56.073Z,5.13
2018-07-26T09:42:24.578Z,4.20
2018-07-26T09:44:53.156Z,4.50
2018-07-26T09:47:21.688Z,4.23
2018-07-26T09:49:50.149Z,4.03
2018-07-26T09:52:18.685Z,3.40
2018-07-26T09:54:47.074Z,3.47
2018-07-26T09:57:15.467Z,2.90
2018-07-26T09:59:43.901Z,3.10
2018-07-26T10:02:12.440Z,2.77
2018-07-26T10:04:40.753Z,2.87
2018-07-26T10:07:09.044Z,3.47
2018-07-26T10:09:37.445Z,3.30
2018-07-26T10:12:06.044Z,2.97
2018-07-26T10:14:34.957Z,3.70
2018-07-26T10:17:03.360Z,3.70
2018-07-26T10:19:31.777Z,3.37
2018-07-26T10:22:00.097Z,3.90
2018-07-26T10:24:28.321Z,3.47
2018-07-26T10:26:56.646Z,3.33
2018-07-26T10:29:24.978Z,3.30
2018-07-26T10:31:53.494Z,3.57
2018-07-26T10:34:21.849Z,3.33
2018-07-26T10:36:50.187Z,3.70
2018-07-26T10:39:18.602Z,3.60
2018-07-26T10:41:46.998Z,3.43
2018-07-26T10:44:15.425Z,3.30
2018-07-26T10:46:43.759Z,3.23
2018-07-26T10:49:12.184Z,2.90
2018-07-26T10:51:47.441Z,3.17
2018-07-26T10:54:15.790Z,3.47
2018-07-26T10:56:44.190Z,2.40
2018-07-26T10:59:12.576Z,2.80
2018-07-26T11:01:40.904Z,2.50
2018-07-26T11:04:09.346Z,2.80
2018-07-26T11:06:37.682Z,2.37
2018-07-26T11:09:08.805Z,2.33
2018-07-26T11:11:37.195Z,2.80
2018-07-26T11:14:05.909Z,3.47
2018-07-26T11:16:34.419Z,2.70
2018-07-26T11:19:02.887Z,2.60
2018-07-26T11:21:31.218Z,2.33
2018-07-26T11:23:59.617Z,2.47
2018-07-26T11:26:27.989Z,3.10
2018-07-26T11:28:56.359Z,2.70
2018-07-26T11:31:24.702Z,2.50
2018-07-26T11:33:52.920Z,2.10
2018-07-26T11:36:21.313Z,2.70
2018-07-26T11:38:49.646Z,2.80
2018-07-26T11:41:18.072Z,2.73
2018-07-26T11:43:46.440Z,2.50
2018-07-26T11:46:15.048Z,2.77
2018-07-26T11:48:43.482Z,2.97
2018-07-26T11:51:12.144Z,2.73
2018-07-26T11:53:40.585Z,2.80
2018-07-26T11:56:08.950Z,2.57
2018-07-26T11:58:37.789Z,2.53
2018-07-26T12:01:06.299Z,2.63
2018-07-26T12:03:34.740Z,3.00
2018-07-26T12:06:03.151Z,3.20
2018-07-26T12:08:31.498Z,3.50
2018-07-26T12:10:59.966Z,2.60
2018-07-26T12:13:28.793Z,3.10
2018-07-26T12:15:57.201Z,3.30
2018-07-26T12:18:26.169Z,2.60
2018-07-26T12:20:54.525Z,2.70
2018-07-26T12:23:22.886Z,2.60
2018-07-26T12:25:51.242Z,2.80
2018-07-26T12:28:19.661Z,3.17
2018-07-26T12:30:48.344Z,3.40
2018-07-26T12:33:16.708Z,3.03
2018-07-26T12:35:45.291Z,2.73
2018-07-26T12:38:13.747Z,2.90
2018-07-26T12:40:41.982Z,2.90
2018-07-26T12:43:10.361Z,4.00
2018-07-26T12:45:38.732Z,2.77
2018-07-26T12:48:07.140Z,2.87
2018-07-26T12:50:35.536Z,2.70
2018-07-26T12:53:03.948Z,2.80
2018-07-26T12:55:32.266Z,2.60
2018-07-26T12:58:00.515Z,2.53
2018-07-26T13:00:29.066Z,2.70
2018-07-26T13:02:57.465Z,2.87
2018-07-26T13:05:25.801Z,2.70
2018-07-26T13:07:54.048Z,2.70
2018-07-26T13:10:22.393Z,2.77
2018-07-26T13:12:50.735Z,2.93
2018-07-26T13:15:18.950Z,2.87
2018-07-26T13:17:47.300Z,2.83
2018-07-26T13:20:15.789Z,2.77
2018-07-26T13:22:44.120Z,3.00
2018-07-26T13:25:12.498Z,2.63
2018-07-26T13:27:40.865Z,2.87
2018-07-26T13:30:09.318Z,2.50
2018-07-26T13:32:37.677Z,2.73
2018-07-26T13:35:06.023Z,3.07
2018-07-26T13:37:34.428Z,3.03
2018-07-26T13:40:03.006Z,3.77
2018-07-26T13:42:31.470Z,3.50
2018-07-26T13:44:59.852Z,2.97
2018-07-26T13:47:28.236Z,3.00
2018-07-26T13:49:56.613Z,3.30
2018-07-26T13:52:25.021Z,2.87
2018-07-26T13:54:53.396Z,2.80
2018-07-26T13:57:21.759Z,3.10
2018-07-26T13:59:50.229Z,3.00
2018-07-26T14:02:18.634Z,3.07
2018-07-26T14:04:46.969Z,3.10
2018-07-26T14:07:15.305Z,3.70
2018-07-26T14:09:43.754Z,3.30
2018-07-26T14:12:12.190Z,3.47
2018-07-26T14:14:40.421Z,2.97
2018-07-26T14:17:15.486Z,2.97
2018-07-26T14:19:43.721Z,3.00
2018-07-26T14:22:12.177Z,3.00
2018-07-26T14:24:40.510Z,2.97
2018-07-26T14:27:08.971Z,2.80
2018-07-26T14:29:37.733Z,30.90
2018-07-26T14:32:06.117Z,3.50
2018-07-26T14:34:34.474Z,4.00
2018-07-26T14:37:02.942Z,3.17
2018-07-26T14:39:31.288Z,3.73
2018-07-26T14:41:59.662Z,4.03
2018-07-26T14:44:27.985Z,4.30
2018-07-26T14:46:56.358Z,3.77
2018-07-26T14:49:24.771Z,3.10
2018-07-26T14:51:53.206Z,3.20
2018-07-26T14:54:21.472Z,3.17
2018-07-26T14:56:49.848Z,3.77
2018-07-26T14:59:18.293Z,2.97
2018-07-26T15:01:46.617Z,2.53
2018-07-26T15:04:15.080Z,2.57
2018-07-26T15:06:43.357Z,3.40
2018-07-26T15:09:11.777Z,3.97
2018-07-26T15:11:40.163Z,3.50
2018-07-26T15:14:08.553Z,3.43
2018-07-26T15:16:37.142Z,3.17
2018-07-26T15:19:06.010Z,3.23
2018-07-26T15:21:34.420Z,3.07
2018-07-26T15:24:02.821Z,3.00
2018-07-26T15:26:31.168Z,2.70
2018-07-26T15:28:59.667Z,3.50
2018-07-26T15:31:28.058Z,3.00
2018-07-26T15:33:56.477Z,4.07
2018-07-26T15:36:25.283Z,3.03
2018-07-26T15:38:53.739Z,3.30
2018-07-26T15:41:22.192Z,3.30
2018-07-26T15:43:50.556Z,2.90
2018-07-26T15:46:18.985Z,3.17
2018-07-26T15:48:47.338Z,3.40
2018-07-26T15:51:15.768Z,3.37
2018-07-26T15:53:44.228Z,3.20
2018-07-26T15:56:12.837Z,3.20
2018-07-26T15:58:41.414Z,3.70
2018-07-26T16:01:09.943Z,3.67
2018-07-26T16:03:38.447Z,3.10
2018-07-26T16:06:07.159Z,3.00
2018-07-26T16:08:35.752Z,3.43
2018-07-26T16:11:04.237Z,3.83
2018-07-26T16:13:32.626Z,4.07
2018-07-26T16:16:01.026Z,3.30
2018-07-26T16:18:29.401Z,3.57
2018-07-26T16:20:57.801Z,3.97
2018-07-26T16:23:26.452Z,3.63
2018-07-26T16:25:54.990Z,4.30
2018-07-26T16:28:23.442Z,4.30
2018-07-26T16:30:52.554Z,4.23
2018-07-26T16:33:21.557Z,4.03
2018-07-26T16:35:49.978Z,3.87
2018-07-26T16:38:18.317Z,4.37
2018-07-26T16:40:46.735Z,3.73
2018-07-26T16:43:15.109Z,3.80
2018-07-26T16:45:43.615Z,3.83
2018-07-26T16:48:12.597Z,3.70
2018-07-26T16:50:41.055Z,4.03
2018-07-26T16:53:09.637Z,4.17
2018-07-26T16:55:39.589Z,4.03
2018-07-26T16:58:08.174Z,4.23
2018-07-26T17:00:36.665Z,3.50
2018-07-26T17:03:05.057Z,3.80
2018-07-26T17:05:33.357Z,4.93
2018-07-26T17:08:01.657Z,3.70
2018-07-26T17:10:30.125Z,4.13
2018-07-26T17:12:58.922Z,4.07
2018-07-26T17:15:27.410Z,4.47
2018-07-26T17:17:55.940Z,4.43
2018-07-26T17:20:24.576Z,4.90
2018-07-26T17:22:53.030Z,3.87
2018-07-26T17:25:25.278Z,4.53
2018-07-26T17:27:55.124Z,4.00
2018-07-26T17:30:23.565Z,4.27
2018-07-26T17:32:51.864Z,3.80
2018-07-26T17:35:20.218Z,4.23
2018-07-26T17:37:48.685Z,4.37
2018-07-26T17:40:17.039Z,3.70
2018-07-26T17:42:45.489Z,3.20
2018-07-26T17:45:13.986Z,4.07
2018-07-26T17:47:42.506Z,3.40
2018-07-26T17:50:11.390Z,4.30
2018-07-26T17:52:40.354Z,3.50
2018-07-26T17:55:09.077Z,3.80
2018-07-26T17:57:38.059Z,3.90
2018-07-26T18:00:08.720Z,3.70
2018-07-26T18:02:37.305Z,3.43
2018-07-26T18:05:05.999Z,3.93
2018-07-26T18:07:34.540Z,3.97
2018-07-26T18:10:03.010Z,3.50
2018-07-26T18:12:31.392Z,4.27
2018-07-26T18:14:59.815Z,3.43
2018-07-26T18:17:28.212Z,3.10
2018-07-26T18:19:56.662Z,3.97
2018-07-26T18:22:25.035Z,3.33
2018-07-26T18:24:53.911Z,4.10
2018-07-26T18:27:22.327Z,3.80
2018-07-26T18:29:50.688Z,3.90
2018-07-26T18:32:19.075Z,3.77
2018-07-26T18:34:47.487Z,3.60
2018-07-26T18:37:16.195Z,3.87
2018-07-26T18:39:44.434Z,3.60
2018-07-26T18:42:12.916Z,3.40
2018-07-26T18:44:41.339Z,4.20
2018-07-26T18:47:10.712Z,3.97
2018-07-26T18:49:39.164Z,3.47
2018-07-26T18:52:07.594Z,3.83
2018-07-26T18:54:35.865Z,4.10
2018-07-26T18:57:04.356Z,4.53
2018-07-26T18:59:33.540Z,5.20
2018-07-26T19:02:01.960Z,5.57
2018-07-26T19:04:30.333Z,4.97
2018-07-26T19:06:59.350Z,5.23
2018-07-26T19:09:27.803Z,6.07
2018-07-26T19:11:56.306Z,6.43
2018-07-26T19:14:24.862Z,4.97
2018-07-26T19:16:53.445Z,5.00
2018-07-26T19:19:21.856Z,4.13
2018-07-26T19:21:50.374Z,4.27
2018-07-26T19:24:18.852Z,4.10
2018-07-26T19:26:47.340Z,4.47
2018-07-26T19:29:15.920Z,4.17
2018-07-26T19:31:44.282Z,4.50
2018-07-26T19:34:12.615Z,4.73
2018-07-26T19:36:40.985Z,4.60
2018-07-26T19:39:11.533Z,5.30
2018-07-26T19:41:40.365Z,5.00
2018-07-26T19:44:08.922Z,5.07
2018-07-26T19:46:38.030Z,5.00
2018-07-26T19:49:06.507Z,5.40
2018-07-26T19:51:34.977Z,4.90
2018-07-26T19:54:03.533Z,4.63
2018-07-26T19:56:32.060Z,4.80
2018-07-26T19:59:00.470Z,5.00
2018-07-26T20:01:28.970Z,4.33
2018-07-26T20:03:57.775Z,5.23
2018-07-26T20:06:26.221Z,5.53
2018-07-26T20:08:54.722Z,4.93
2018-07-26T20:11:23.159Z,5.50
2018-07-26T20:13:51.748Z,4.80
2018-07-26T20:16:20.211Z,5.20
2018-07-26T20:18:49.398Z,4.57
2018-07-26T20:21:17.849Z,5.57
2018-07-26T20:23:46.305Z,4.70
2018-07-26T20:26:14.730Z,5.00
2018-07-26T20:28:43.012Z,4.07
2018-07-26T20:31:11.626Z,4.40
2018-07-26T20:33:40.152Z,5.10
2018-07-26T20:36:08.797Z,4.43
2018-07-26T20:38:37.303Z,5.70
2018-07-26T20:41:05.775Z,6.23
2018-07-26T20:43:34.159Z,5.27
2018-07-26T20:46:02.517Z,4.87
2018-07-26T20:48:30.969Z,5.13
2018-07-26T20:50:59.306Z,5.20
2018-07-26T20:53:28.464Z,5.83
2018-07-26T20:55:56.836Z,5.20
2018-07-26T20:58:25.241Z,5.37
2018-07-26T21:00:53.709Z,5.03
2018-07-26T21:03:22.107Z,4.73
2018-07-26T21:05:50.432Z,4.83
2018-07-26T21:08:18.862Z,5.03
2018-07-26T21:10:47.208Z,5.10
2018-07-26T21:13:15.437Z,5.30
2018-07-26T21:15:43.721Z,4.93
2018-07-26T21:18:12.076Z,4.60
2018-07-26T21:20:40.468Z,5.07
2018-07-26T21:23:08.709Z,4.47
2018-07-26T21:25:37.142Z,4.80
2018-07-26T21:28:05.595Z,4.90
2018-07-26T21:30:33.974Z,5.20
2018-07-26T21:33:02.333Z,4.60
2018-07-26T21:35:30.704Z,4.77
2018-07-26T21:37:59.097Z,5.23
2018-07-26T21:40:27.472Z,4.70
2018-07-26T21:42:55.848Z,4.40
2018-07-26T21:45:24.268Z,4.60
2018-07-26T21:47:52.581Z,5.00
2018-07-26T21:50:20.888Z,5.57
2018-07-26T21:52:49.149Z,5.20
2018-07-26T21:55:17.615Z,4.83
2018-07-26T21:57:46.027Z,5.07
2018-07-26T22:00:14.420Z,5.30
2018-07-26T22:02:42.704Z,5.50
2018-07-26T22:05:11.101Z,6.23
2018-07-26T22:07:40.170Z,4.87
2018-07-26T22:10:08.563Z,4.53
2018-07-26T22:12:36.937Z,5.00
2018-07-26T22:15:05.906Z,4.60
2018-07-26T22:17:35.405Z,4.47
2018-07-26T22:20:03.896Z,4.90
2018-07-26T22:22:32.262Z,4.87
2018-07-26T22:25:00.575Z,5.73
2018-07-26T22:27:28.889Z,4.63
2018-07-26T22:29:57.212Z,5.47
2018-07-26T22:32:25.545Z,5.70
2018-07-26T22:34:53.873Z,5.07
2018-07-26T22:37:22.201Z,5.30
2018-07-26T22:39:50.667Z,5.10
2018-07-26T22:42:19.050Z,5.90
2018-07-26T22:44:47.509Z,5.03
2018-07-26T22:47:17.870Z,4.70
2018-07-26T22:49:46.218Z,5.67
2018-07-26T22:52:14.612Z,4.73
2018-07-26T22:54:42.902Z,4.90
2018-07-26T22:57:11.132Z,5.07
2018-07-26T22:59:39.460Z,5.30
2018-07-26T23:02:07.846Z,5.67
2018-07-26T23:04:36.185Z,5.47
2018-07-26T23:07:04.650Z,5.03
2018-07-26T23:09:32.971Z,5.00
2018-07-26T23:12:01.370Z,5.40
2018-07-26T23:14:29.701Z,5.40
2018-07-26T23:16:58.065Z,5.47
2018-07-26T23:19:27.433Z,4.53
2018-07-26T23:21:55.826Z,5.23
2018-07-26T23:24:24.172Z,4.63
2018-07-26T23:26:52.570Z,5.70
2018-07-26T23:29:20.864Z,5.30
2018-07-26T23:31:49.192Z,6.40
2018-07-26T23:34:17.609Z,5.40
2018-07-26T23:36:46.032Z,4.97
2018-07-26T23:39:14.396Z,5.63
2018-07-26T23:41:42.823Z,5.33
2018-07-26T23:44:11.284Z,5.33
2018-07-26T23:46:39.696Z,5.20
2018-07-26T23:49:08.169Z,5.27
2018-07-26T23:51:36.572Z,4.83
2018-07-26T23:54:04.932Z,5.20
2018-07-26T23:56:33.265Z,5.43
2018-07-26T23:59:01.475Z,5.47
